Tyngsboro, MA

7:57 PM EDT on October 22, 2014 (GMT -0400)
Ridgecrest Dr | Change Station
CLOSE
Current Station
Personal Weather Station
Location: Hudson, NH
Elevation: 184 ft
Nearby Weather Stations

Elev 184 ft 42.71 °N, 71.42 °W | Updated 29 seconds ago

Overcast
Overcast
47.8 °F
Feels Like 48 °F
N
2.0
Wind Variable Wind from NE
Gusts 2.5 mph

Today
High -- | Low -- °F
--% Chance of Precip.
Yesterday
High -- | Low -- °F
Precip. -- in
7:07 AM 5:52 PM
Waning Crescent, 1% visible
Pressure 30.69 in
Visibility 3.0 miles
Clouds Overcast 1100 ft
Windchill 48 °F
Dew Point 48 °F
Humidity 99%
Rainfall 0.17 in
Snow Depth Not available.
UV 0 out of 12
Pollen .30 out of 12
Ozone Good
PM2.5 Good
Flu Activity No Activity
METAR KASH 222351Z 02008G15KT 3SM -RA BR OVC011 09/08 A2994 RMK AO2 58011 60000 T00880083 10105 20088 P0000 SLP390 $

More Conditions Fewer Conditions

Pressure 30.69 in
Visibility 3.0 miles
Clouds Overcast 1100 ft
Windchill 48 °F
Dew Point 48 °F
Humidity 99%
Rainfall 0.17 in
Snow Depth Not available.
UV 0 out of 12
Pollen .30 out of 12
Ozone Good
PM2.5 Good
Flu Activity No Activity
METAR KASH 222351Z 02008G15KT 3SM -RA BR OVC011 09/08 A2994 RMK AO2 58011 60000 T00880083 10105 20088 P0000 SLP390 $

More Conditions Fewer Conditions

10-Day Weather Forecast

Almanac

Astronomy

Oct. 22, 2014 Rise Set
Actual Time 7:07 AM EDT 5:52 PM EDT
Civil Twilight 6:38 AM EDT 6:21 PM EDT
Nautical Twilight 6:05 AM EDT 6:54 PM EDT
Astronomical Twilight 5:32 AM EDT 7:26 PM EDT
Moon 5:43 AM EDT 5:18 PM EDT
Length of Visible Light 11h 42m
Length of Day
10h 45m
Tomorrow will be 2m 42s shorter.
Waning Crescent, 1% of the Moon is Illuminated
Today
Waning Crescent
Oct 23
New
Oct 30
First Quarter
Nov 6
Full
Nov 14
Last Quarter

Today's Extremes

State Highs State Lows

Community

WunderPhotos

Upload Photos

1,764,080 photos uploaded!

WunderBlogs® & News

Nearby

Air Quality

  Air Quality AQ Index Pollutant
Yesterday Good
PM2.5
Yesterday Good
OZONE
Current Good
OZONE
Current Good
PM2.5
Wednesday Good
PM2.5
Thursday Good
PM2.5

Snow Depth

Station Depth Elevation
No new snow has been reported.

Earthquake Activity

City Distance Mag. Time & Date
No recent earthquake activity has been reported nearby.
Minimum magnitude displayed is 2.5.

Coastal Water Temperatures

Place Temperature
Boston, MA 57.0 °F
Providence, RI 62.1 °F
Fall River, MA 63.0 °F
Conimicut Light, RI 61.0 °F

Nearby Weather Stations